Terminal Aerodrome Forecast
Issued by NWS Omaha/Valley, NE

Home | Current Version | Previous Version | Text Only | Print | Product List | Glossary On
Versions: 1 2 3 4 5 6 7 8 9 10 11 12 13 14 15 16 17 18 19 20 21 22 23 24 25 26 27 28 29 30 31 32 33 34 35 36 37 38 39 40 41 42 43 44 45
000
FTUS43 KOAX 200820 AAA
TAFLNK
TAF AMD
KLNK 200820Z 2008/2106 21010KT P6SM SCT100 BKN250
     FM200900 22010KT P6SM VCSH SCT030 BKN100
      TEMPO 2009/2012 4SM TSRA BKN030CB
     FM201200 29007KT P6SM -SHRA BKN080
      TEMPO 2012/2015 4SM TSRA BKN030CB
     FM201500 33010KT P6SM SCT030 BKN250=

USA.gov is the U.S. government's official web portal to all federal, state and local government web resources and services.